Time;durP1;ratioP1;P1;durP2;ratioP2;P2;SDS_P1;SDS_P2;PMS_P1;PMS_P2;Temp;Humidity;BMP_temperature;BMP_pressure;BME280_temperature;BME280_humidity;BME280_pressure;Samples;Min_cycle;Max_cycle;Signal;HPM_P1;HPM_P2
2022/06/26 00:00:30;;;;;;;12.10;9.83;;;;;;;19.34;62.96;100021.72;2129699;83;32055;-62
2022/06/26 00:03:33;;;;;;;14.33;10.35;;;;;;;19.32;63.16;100012.84;2131193;83;28884;-59
2022/06/26 00:06:34;;;;;;;15.83;11.63;;;;;;;19.28;63.37;100015.84;2134151;83;30748;-59
2022/06/26 00:09:36;;;;;;;17.15;12.33;;;;;;;19.27;63.72;100023.63;2134263;83;27580;-59
2022/06/26 00:12:37;;;;;;;15.45;11.80;;;;;;;19.27;63.88;100030.42;2134307;83;29037;-59
2022/06/26 00:15:39;;;;;;;17.45;12.75;;;;;;;19.26;63.79;100022.42;2130298;83;31223;-59
2022/06/26 00:18:41;;;;;;;13.83;11.43;;;;;;;19.26;63.68;100026.50;2130124;83;34086;-59
2022/06/26 00:21:43;;;;;;;17.20;12.78;;;;;;;19.22;63.61;100029.12;2129675;83;30465;-58
2022/06/26 00:24:45;;;;;;;16.37;13.00;;;;;;;19.19;63.69;100033.47;2132949;82;28156;-58
2022/06/26 00:27:46;;;;;;;16.57;13.03;;;;;;;19.15;63.72;100032.89;2134237;83;28052;-58
2022/06/26 00:30:48;;;;;;;14.68;12.20;;;;;;;19.09;63.74;100034.31;2134165;83;32172;-59
2022/06/26 00:33:51;;;;;;;16.87;11.78;;;;;;;19.02;63.92;100035.84;2132549;83;34173;-59
2022/06/26 00:36:53;;;;;;;21.45;13.55;;;;;;;18.97;63.88;100035.39;2129832;83;30008;-58
2022/06/26 00:39:54;;;;;;;16.93;12.37;;;;;;;18.92;64.10;100036.29;2129864;83;27743;-61
2022/06/26 00:42:55;;;;;;;16.80;12.23;;;;;;;18.85;64.09;100041.41;2130142;83;29891;-59
2022/06/26 00:45:57;;;;;;;17.15;12.03;;;;;;;18.78;64.26;100043.78;2134194;83;31388;-58
2022/06/26 00:48:58;;;;;;;17.85;11.55;;;;;;;18.73;64.29;100043.83;2133737;83;34163;-59
2022/06/26 00:52:01;;;;;;;22.07;12.98;;;;;;;18.66;64.77;100046.23;2134078;83;29546;-59
2022/06/26 00:55:04;;;;;;;16.80;11.73;;;;;;;18.58;64.84;100040.12;2131504;83;27631;-66
2022/06/26 00:58:05;;;;;;;17.10;11.08;;;;;;;18.51;64.56;100038.95;2130097;83;28962;-70
2022/06/26 01:01:07;;;;;;;13.70;11.15;;;;;;;18.44;64.89;100035.05;2130110;83;32179;-59
2022/06/26 01:04:08;;;;;;;14.45;11.80;;;;;;;18.37;65.08;100037.44;2131678;83;33341;-59
2022/06/26 01:07:11;;;;;;;13.53;10.72;;;;;;;18.29;65.04;100037.22;2134575;83;30191;-59
2022/06/26 01:10:12;;;;;;;14.53;11.70;;;;;;;18.23;65.23;100048.11;2134279;83;27515;-59
2022/06/26 01:13:14;;;;;;;14.63;11.78;;;;;;;18.17;65.38;100050.86;2134150;83;28986;-66
2022/06/26 01:16:17;;;;;;;17.62;11.57;;;;;;;18.11;65.40;100042.39;2130198;83;32166;-59
2022/06/26 01:19:20;;;;;;;14.93;11.30;;;;;;;18.06;65.47;100049.57;2130032;82;32943;-59
2022/06/26 01:22:23;;;;;;;13.62;11.70;;;;;;;18.02;65.71;100042.20;2130155;83;30409;-59
2022/06/26 01:25:24;;;;;;;13.95;11.08;;;;;;;17.95;65.72;100036.89;2130350;82;27604;-59
2022/06/26 01:28:26;;;;;;;14.55;11.20;;;;;;;17.91;65.83;100040.85;2130117;83;28594;-59
2022/06/26 01:31:27;;;;;;;16.30;11.53;;;;;;;17.86;65.84;100041.76;2129892;83;32351;-59
2022/06/26 01:34:29;;;;;;;15.05;12.00;;;;;;;17.83;65.93;100037.95;2101700;83;33003;-62
2022/06/26 01:37:30;;;;;;;18.87;12.40;;;;;;;17.78;66.11;100041.05;2134500;83;29978;-59
2022/06/26 01:40:31;;;;;;;17.82;12.78;;;;;;;17.76;66.42;100038.96;2134013;83;27892;-59
2022/06/26 01:43:36;;;;;;;16.62;12.85;;;;;;;17.72;66.49;100046.47;2134384;83;28652;-61
2022/06/26 01:46:37;;;;;;;15.35;12.63;;;;;;;17.68;66.57;100049.09;2134252;83;30993;-60
2022/06/26 01:49:38;;;;;;;15.78;12.43;;;;;;;17.64;66.59;100046.74;2134049;83;33119;-59
2022/06/26 01:52:40;;;;;;;15.83;13.28;;;;;;;17.59;66.67;100048.02;2134102;83;30776;-59
2022/06/26 01:55:42;;;;;;;22.22;13.95;;;;;;;17.56;66.84;100055.03;2130569;83;27775;-59
2022/06/26 01:58:44;;;;;;;15.23;13.15;;;;;;;17.51;66.89;100055.05;2129896;83;28728;-60
2022/06/26 02:01:45;;;;;;;19.20;14.10;;;;;;;17.46;67.05;100054.93;2130571;83;31393;-59
2022/06/26 02:04:47;;;;;;;17.20;13.43;;;;;;;17.42;67.10;100060.73;2132684;83;32697;-59
2022/06/26 02:07:53;;;;;;;16.48;13.30;;;;;;;17.38;67.25;100062.81;2133979;83;29664;-61
2022/06/26 02:14:14;;;;;;;20.92;14.05;;;;;;;17.28;67.54;100062.73;2132352;83;29674;-60
2022/06/26 02:17:15;;;;;;;16.15;12.93;;;;;;;17.24;67.76;100063.97;2130211;83;30830;-59
2022/06/26 02:20:17;;;;;;;15.25;12.65;;;;;;;17.21;68.05;100057.44;2130234;83;32986;-60
2022/06/26 02:23:19;;;;;;;17.37;13.08;;;;;;;17.20;68.02;100065.70;2130500;82;30809;-60
2022/06/26 02:26:21;;;;;;;14.95;13.10;;;;;;;17.18;68.14;100063.61;2134549;83;27511;-60
2022/06/26 02:29:23;;;;;;;15.85;13.00;;;;;;;17.15;68.20;100066.92;2133981;83;29929;-59
2022/06/26 02:32:24;;;;;;;17.35;13.45;;;;;;;17.12;68.36;100068.52;2134025;83;31832;-59
2022/06/26 02:35:28;;;;;;;17.10;13.22;;;;;;;17.10;68.27;100071.00;2130724;83;34309;-65
2022/06/26 02:38:30;;;;;;;17.37;12.95;;;;;;;17.08;68.25;100082.44;2130017;83;29764;-59
2022/06/26 02:41:31;;;;;;;18.42;14.03;;;;;;;17.05;68.33;100075.41;2109443;83;27604;-60
2022/06/26 02:44:34;;;;;;;16.15;13.00;;;;;;;17.04;68.47;100072.83;2098273;83;29571;-59
2022/06/26 02:47:35;;;;;;;18.65;13.72;;;;;;;17.03;68.65;100078.75;2128580;83;31023;-60
2022/06/26 02:50:40;;;;;;;18.37;14.10;;;;;;;17.01;68.81;100080.21;2128750;83;34062;-60
2022/06/26 02:53:41;;;;;;;;;;;;;;;17.00;68.81;100077.14;2127379;83;30849;-60
2022/06/26 02:56:43;;;;;;;18.00;14.68;;;;;;;17.01;69.04;100091.03;2109666;83;27617;-60
2022/06/26 02:59:45;;;;;;;14.50;13.00;;;;;;;17.00;69.26;100093.88;2134296;83;29043;-68
2022/06/26 03:02:46;;;;;;;16.65;13.83;;;;;;;16.99;68.97;100093.51;2135384;83;32193;-68
2022/06/26 03:05:48;;;;;;;18.62;14.00;;;;;;;17.00;69.17;100099.30;2128818;83;33323;-60
2022/06/26 03:08:49;;;;;;;17.35;13.78;;;;;;;17.02;69.24;100104.09;2109478;84;30612;-60
2022/06/26 03:11:51;;;;;;;15.28;12.88;;;;;;;17.06;69.29;100106.05;2127655;83;27665;-59
2022/06/26 03:14:52;;;;;;;22.07;14.73;;;;;;;17.07;69.25;100107.78;2111473;84;30007;-60
2022/06/26 03:17:54;;;;;;;18.07;13.98;;;;;;;17.12;69.27;100113.19;2087051;84;31026;-61
2022/06/26 03:20:56;;;;;;;17.40;13.22;;;;;;;17.16;69.23;100111.97;2113518;84;32952;-59
2022/06/26 03:24:03;;;;;;;18.20;13.83;;;;;;;17.22;69.28;100114.66;2112545;84;29646;-59
2022/06/26 03:27:05;;;;;;;16.02;13.10;;;;;;;17.28;69.28;100107.88;2129471;83;27677;-59
2022/06/26 03:30:10;;;;;;;17.77;13.65;;;;;;;17.34;69.37;100106.05;2134957;83;28144;-60
2022/06/26 03:33:11;;;;;;;19.10;14.30;;;;;;;17.41;69.44;100111.81;2103522;84;31097;-59
2022/06/26 03:36:13;;;;;;;18.32;14.28;;;;;;;17.46;69.63;100106.39;2096125;84;34186;-59
2022/06/26 03:39:15;;;;;;;16.65;13.48;;;;;;;17.53;69.62;100114.87;2127860;82;29645;-59
2022/06/26 03:42:16;;;;;;;18.00;13.05;;;;;;;17.59;69.64;100108.08;2109722;84;28113;-59
2022/06/26 03:45:17;;;;;;;15.68;13.13;;;;;;;17.67;69.57;100111.51;2132615;83;29721;-59
2022/06/26 03:48:19;;;;;;;14.60;12.88;;;;;;;17.74;69.62;100120.36;2135225;83;31072;-65
2022/06/26 03:51:20;;;;;;;18.07;14.63;;;;;;;17.83;69.56;100126.02;2135311;83;32879;-61
2022/06/26 03:54:21;;;;;;;20.97;14.20;;;;;;;17.92;69.64;100129.30;2132587;83;29713;-60
2022/06/26 03:57:23;;;;;;;16.32;14.58;;;;;;;18.01;69.65;100130.41;2109893;84;28069;-63
2022/06/26 04:00:26;;;;;;;17.75;14.53;;;;;;;18.10;69.65;100126.95;2127632;83;30034;-64
2022/06/26 04:03:28;;;;;;;20.68;14.98;;;;;;;18.20;69.47;100120.25;2109532;84;31124;-60
2022/06/26 04:06:29;;;;;;;19.07;15.15;;;;;;;18.30;69.51;100121.66;2112754;84;34132;-60
2022/06/26 04:09:32;;;;;;;20.52;15.80;;;;;;;18.41;69.33;100122.09;2113426;84;30362;-60
2022/06/26 04:12:34;;;;;;;19.50;15.25;;;;;;;18.50;69.20;100123.53;2113307;84;27675;-60
2022/06/26 04:15:38;;;;;;;18.32;15.10;;;;;;;18.62;69.18;100121.61;2110233;84;28672;-60
2022/06/26 04:18:40;;;;;;;23.57;16.52;;;;;;;18.74;68.97;100131.03;2127478;83;30509;-60
2022/06/26 04:21:42;;;;;;;19.17;14.20;;;;;;;18.85;68.66;100136.41;2109599;84;33018;-61
2022/06/26 04:24:44;;;;;;;17.40;14.58;;;;;;;18.97;68.49;100138.55;2130628;83;31012;-60
2022/06/26 04:27:46;;;;;;;21.50;15.18;;;;;;;19.10;68.26;100136.50;2135219;83;27622;-61
2022/06/26 04:30:47;;;;;;;18.95;14.35;;;;;;;19.25;68.11;100138.33;2102993;84;28732;-60
2022/06/26 04:33:50;;;;;;;13.80;12.40;;;;;;;19.40;67.84;100148.82;2102132;84;31020;-60
2022/06/26 04:36:52;;;;;;;13.88;12.40;;;;;;;19.56;67.42;100145.59;2127474;83;34153;-61
2022/06/26 04:39:54;;;;;;;22.30;12.18;;;;;;;19.76;67.16;100145.66;2109202;83;31077;-61
2022/06/26 04:42:56;;;;;;;13.85;11.65;;;;;;;19.96;66.43;100147.41;2127748;83;27693;-60
2022/06/26 04:45:58;;;;;;;13.58;12.15;;;;;;;20.19;65.90;100151.23;2125024;83;29901;-61
2022/06/26 04:48:59;;;;;;;11.68;10.43;;;;;;;20.49;66.04;100143.44;2128723;83;31419;-61
2022/06/26 04:52:01;;;;;;;11.10;9.98;;;;;;;21.42;66.22;100145.13;2128721;83;34124;-61
2022/06/26 04:55:04;;;;;;;11.88;10.68;;;;;;;22.76;65.41;100144.48;2128752;83;30879;-60
2022/06/26 04:58:05;;;;;;;12.75;8.98;;;;;;;24.21;64.28;100153.34;2128970;83;27666;-61
2022/06/26 05:01:08;;;;;;;12.25;9.35;;;;;;;25.51;61.65;100147.58;2128943;83;29064;-61
2022/06/26 05:04:09;;;;;;;9.95;8.95;;;;;;;26.73;59.80;100152.45;2124609;83;31424;-61
2022/06/26 05:07:11;;;;;;;9.70;8.70;;;;;;;27.86;58.20;100151.05;2127755;83;33451;-61
2022/06/26 05:10:13;;;;;;;11.40;8.68;;;;;;;28.84;55.38;100144.72;2109318;84;30948;-61
2022/06/26 05:13:15;;;;;;;9.93;8.80;;;;;;;29.78;54.46;100149.41;2127519;83;28150;-59
2022/06/26 05:16:16;;;;;;;13.85;9.13;;;;;;;30.71;52.59;100142.38;2112705;84;28745;-59
2022/06/26 05:19:18;;;;;;;11.93;9.10;;;;;;;31.42;46.53;100151.88;2113340;84;31416;-63
2022/06/26 05:22:19;;;;;;;11.05;8.55;;;;;;;31.74;48.10;100153.94;2112983;84;32963;-65
2022/06/26 05:25:21;;;;;;;11.97;9.15;;;;;;;32.25;47.25;100166.87;2127868;83;29955;-68
2022/06/26 05:28:23;;;;;;;10.88;8.63;;;;;;;32.77;46.18;100159.46;2109649;84;27613;-71
2022/06/26 05:31:25;;;;;;;10.40;9.00;;;;;;;33.25;43.48;100165.75;2127711;83;29074;-60
2022/06/26 05:34:26;;;;;;;9.58;8.58;;;;;;;33.11;41.45;100171.12;2112417;84;31416;-60
2022/06/26 05:37:27;;;;;;;12.88;7.97;;;;;;;33.28;41.32;100170.84;2113796;84;33304;-61
2022/06/26 05:40:29;;;;;;;10.05;8.53;;;;;;;33.50;40.94;100164.01;2112945;83;29631;-72
2022/06/26 05:43:31;;;;;;;12.43;8.23;;;;;;;33.83;40.15;100166.91;2110613;84;27695;-65
2022/06/26 05:46:32;;;;;;;8.88;8.05;;;;;;;34.07;39.18;100170.16;2127011;83;29927;-67
2022/06/26 05:49:34;;;;;;;10.40;9.35;;;;;;;34.35;39.00;100170.58;2108451;84;31395;-67
2022/06/26 05:52:36;;;;;;;8.75;7.92;;;;;;;34.81;38.84;100167.64;2131664;83;33004;-70
2022/06/26 05:55:42;;;;;;;8.18;7.30;;;;;;;35.27;37.71;100169.27;2105473;84;29799;-67
2022/06/26 05:58:43;;;;;;;10.53;8.18;;;;;;;35.73;37.29;100172.80;2075813;85;27636;-66
2022/06/26 06:01:45;;;;;;;9.20;7.92;;;;;;;36.12;36.40;100185.58;2091601;85;28692;-69
2022/06/26 06:04:46;;;;;;;13.65;8.28;;;;;;;36.44;35.85;100186.48;2091284;85;30529;-67
2022/06/26 06:07:47;;;;;;;8.98;8.10;;;;;;;36.76;34.25;100187.30;2091481;85;33834;-68
2022/06/26 06:10:48;;;;;;;10.35;8.45;;;;;;;37.05;33.84;100183.06;2091478;85;29626;-72
2022/06/26 06:13:49;;;;;;;13.25;8.08;;;;;;;37.51;33.04;100190.44;2112450;84;27683;-68
2022/06/26 06:16:51;;;;;;;8.85;7.95;;;;;;;37.81;32.55;100186.34;2112014;84;28713;-68
2022/06/26 06:19:52;;;;;;;11.70;8.28;;;;;;;38.13;31.38;100191.20;2112444;84;30992;-67
2022/06/26 06:23:05;;;;;;;9.20;8.00;;;;;;;38.45;31.84;100184.30;2112336;84;32967;-67
2022/06/26 06:26:06;;;;;;;9.90;8.83;;;;;;;38.78;30.98;100193.25;2112411;84;30644;-71
2022/06/26 06:29:08;;;;;;;11.78;8.28;;;;;;;39.17;30.15;100192.98;2112509;84;27984;-70
2022/06/26 06:32:09;;;;;;;9.50;8.60;;;;;;;39.42;29.84;100204.11;2110698;84;28683;-71
2022/06/26 06:35:14;;;;;;;10.58;8.53;;;;;;;39.47;29.48;100199.36;2127322;83;31002;-73
2022/06/26 06:38:15;;;;;;;9.88;8.10;;;;;;;39.71;28.53;100201.73;2108560;84;33820;-69
2022/06/26 06:41:17;;;;;;;9.10;8.18;;;;;;;39.93;28.57;100208.57;2128315;82;29621;-73
2022/06/26 06:44:19;;;;;;;9.65;8.55;;;;;;;40.20;28.32;100212.33;2103498;84;27737;-72
2022/06/26 06:47:20;;;;;;;10.80;8.58;;;;;;;40.57;27.72;100209.83;2103351;84;28667;-66
2022/06/26 06:50:22;;;;;;;9.90;8.18;;;;;;;40.74;27.54;100206.80;2076461;85;31019;-71
2022/06/26 06:53:24;;;;;;;9.03;8.15;;;;;;;41.00;26.87;100212.38;2092252;85;33181;-67
2022/06/26 06:56:25;;;;;;;9.38;8.45;;;;;;;41.04;27.09;100214.09;2092233;85;29608;-72
2022/06/26 06:59:27;;;;;;;10.75;8.55;;;;;;;41.10;26.57;100208.20;2092228;85;27606;-70
2022/06/26 07:02:31;;;;;;;9.40;8.58;;;;;;;41.26;25.77;100210.98;2092127;85;28661;-72
2022/06/26 07:05:31;;;;;;;;;;;;;;;41.12;25.57;100210.72;2115682;84;32035;-69
2022/06/26 07:08:33;;;;;;;15.80;7.80;;;;;;;41.08;25.55;100210.45;2113139;84;33168;-71
2022/06/26 07:11:37;;;;;;;10.43;9.23;;;;;;;41.11;25.40;100207.63;2112209;84;30453;-68
2022/06/26 07:14:39;;;;;;;12.07;8.20;;;;;;;41.08;25.08;100204.83;2127779;82;27667;-73
2022/06/26 07:17:40;;;;;;;8.83;7.60;;;;;;;41.03;25.24;100198.34;2109291;84;28872;-68
2022/06/26 07:20:41;;;;;;;10.13;8.78;;;;;;;41.14;25.35;100198.05;2127792;83;31856;-70
2022/06/26 07:23:43;;;;;;;9.00;8.10;;;;;;;41.17;24.35;100195.26;2113008;84;33693;-67
2022/06/26 07:26:44;;;;;;;11.22;9.13;;;;;;;40.88;24.71;100200.02;2113118;84;29746;-71
2022/06/26 07:29:46;;;;;;;10.88;8.63;;;;;;;40.85;24.83;100200.61;2113237;84;27727;-67
2022/06/26 07:32:47;;;;;;;9.98;8.35;;;;;;;40.96;24.88;100193.84;2110931;84;28843;-71
2022/06/26 07:35:48;;;;;;;9.53;8.53;;;;;;;41.13;24.90;100196.95;2109651;84;31043;-73
2022/06/26 07:38:50;;;;;;;9.35;8.13;;;;;;;41.33;24.60;100187.61;2127662;83;32972;-68
2022/06/26 07:41:51;;;;;;;8.53;7.15;;;;;;;41.29;23.92;100185.08;2110286;83;29639;-68
2022/06/26 07:44:52;;;;;;;8.45;7.45;;;;;;;41.34;23.95;100186.48;2113646;84;27664;-67
2022/06/26 07:47:56;;;;;;;8.70;7.83;;;;;;;41.20;23.46;100193.30;2113435;84;28674;-70
2022/06/26 07:50:57;;;;;;;9.08;7.70;;;;;;;40.94;23.75;100184.03;2113164;84;31117;-67
2022/06/26 07:54:00;;;;;;;8.98;8.18;;;;;;;41.00;23.83;100186.55;2109681;84;32949;-67
2022/06/26 07:57:01;;;;;;;8.20;7.42;;;;;;;40.91;23.64;100188.23;2127811;83;30425;-67
2022/06/26 08:00:03;;;;;;;9.23;7.25;;;;;;;41.01;24.15;100188.78;2109529;84;27755;-72
2022/06/26 08:03:11;;;;;;;8.38;7.58;;;;;;;41.31;23.58;100194.94;2132548;83;29447;-71
2022/06/26 08:06:13;;;;;;;7.87;7.15;;;;;;;41.37;23.23;100194.36;2118438;84;31050;-71
2022/06/26 08:09:14;;;;;;;7.85;7.03;;;;;;;41.08;23.02;100189.92;2113050;84;33599;-67
2022/06/26 08:12:15;;;;;;;7.85;7.10;;;;;;;40.78;23.05;100188.27;2111617;84;29631;-67
2022/06/26 08:15:16;;;;;;;7.20;6.53;;;;;;;40.51;23.01;100192.72;2081110;84;27726;-71
2022/06/26 08:18:18;;;;;;;11.70;7.30;;;;;;;40.41;23.44;100191.57;2108732;84;28767;-66
2022/06/26 08:24:40;;;;;;;9.35;6.95;;;;;;;40.14;23.27;100187.56;2112814;84;33158;-70
2022/06/26 08:27:41;;;;;;;6.80;6.17;;;;;;;39.90;23.67;100191.42;2112758;84;29676;-68
2022/06/26 08:30:42;;;;;;;8.43;6.45;;;;;;;39.91;23.59;100186.95;2112665;84;27865;-71
2022/06/26 08:33:43;;;;;;;7.03;6.28;;;;;;;40.06;23.73;100188.95;2109380;84;28728;-66
2022/06/26 08:36:47;;;;;;;7.40;6.62;;;;;;;40.33;23.72;100191.28;2109084;84;31798;-71
2022/06/26 08:39:48;;;;;;;7.28;6.17;;;;;;;40.47;23.40;100192.98;2081611;84;32981;-71
2022/06/26 08:42:53;;;;;;;7.47;6.25;;;;;;;40.59;22.95;100188.51;2106422;84;29664;-71
2022/06/26 08:45:55;;;;;;;6.83;6.15;;;;;;;40.30;22.94;100187.62;2106325;84;27724;-66
2022/06/26 08:48:58;;;;;;;6.25;5.65;;;;;;;40.32;23.33;100182.57;2106297;84;29726;-66
2022/06/26 08:51:59;;;;;;;6.25;5.75;;;;;;;40.23;22.93;100185.08;2106066;84;31025;-69
2022/06/26 08:55:03;;;;;;;14.35;5.80;;;;;;;40.20;22.56;100182.28;2105110;84;33089;-66
2022/06/26 08:58:04;;;;;;;7.22;5.80;;;;;;;39.97;22.66;100180.80;2105003;84;29693;-67
2022/06/26 09:01:07;;;;;;;6.03;5.42;;;;;;;39.80;22.05;100175.40;2105099;84;27780;-66
2022/06/26 09:04:10;;;;;;;8.55;5.70;;;;;;;39.55;22.64;100175.57;2106069;84;28640;-66
2022/06/26 09:07:11;;;;;;;5.90;5.40;;;;;;;39.35;22.88;100172.95;2106404;84;31027;-68
2022/06/26 09:10:16;;;;;;;5.25;4.85;;;;;;;39.42;22.64;100171.87;2106026;84;33962;-67
2022/06/26 09:13:17;;;;;;;6.78;4.83;;;;;;;38.98;22.75;100178.58;2105528;83;29647;-67
2022/06/26 09:16:31;;;;;;;6.37;5.42;;;;;;;38.64;22.77;100177.45;2105144;84;27642;-73
2022/06/26 09:19:35;;;;;;;6.45;5.10;;;;;;;38.50;23.15;100177.03;2105145;84;28658;-66
2022/06/26 09:22:42;;;;;;;5.35;4.85;;;;;;;38.30;23.40;100172.36;2105592;84;31215;-66
2022/06/26 09:25:45;;;;;;;4.95;3.75;;;;;;;38.32;23.40;100165.66;2104356;83;32384;-65
2022/06/26 09:28:48;;;;;;;5.17;4.67;;;;;;;38.25;23.35;100165.30;2104892;84;30446;-65
2022/06/26 09:31:49;;;;;;;5.87;5.37;;;;;;;38.24;23.28;100165.58;2104861;84;27626;-67
2022/06/26 09:34:54;;;;;;;8.00;5.35;;;;;;;38.13;23.75;100164.09;2083728;83;29351;-66
2022/06/26 09:37:59;;;;;;;6.33;5.62;;;;;;;37.74;23.24;100166.10;2103519;84;31036;-66
2022/06/26 09:41:07;;;;;;;5.37;4.87;;;;;;;37.51;23.67;100163.89;2104443;82;33939;-65
2022/06/26 09:44:14;;;;;;;5.42;4.83;;;;;;;37.33;23.54;100170.05;2101913;84;29776;-67
2022/06/26 09:47:30;;;;;;;4.67;4.30;;;;;;;37.16;23.99;100163.08;2101065;84;27712;-64
2022/06/26 09:50:31;;;;;;;5.60;5.03;;;;;;;37.05;23.81;100166.30;2094923;84;29072;-64
2022/06/26 09:53:33;;;;;;;6.42;4.97;;;;;;;36.57;23.86;100173.32;2105574;84;31600;-67
2022/06/26 09:56:34;;;;;;;4.80;4.40;;;;;;;36.16;24.18;100167.79;2105591;84;34103;-63
2022/06/26 09:59:36;;;;;;;6.72;4.78;;;;;;;35.82;24.08;100162.11;2107223;84;29956;-68
2022/06/26 10:09:18;;;;;;;7.92;4.45;;;;;;;34.79;25.43;100167.02;2101645;84;32346;-63
2022/06/26 10:12:20;;;;;;;5.47;4.55;;;;;;;34.50;25.46;100168.78;2103069;84;34058;-65
2022/06/26 10:15:26;;;;;;;4.95;4.42;;;;;;;34.30;25.22;100171.30;2106080;84;29640;-63
2022/06/26 10:18:48;;;;;;;5.22;4.72;;;;;;;34.09;26.05;100166.56;2106198;84;27670;-63
2022/06/26 10:21:50;;;;;;;9.83;6.05;;;;;;;34.00;26.68;100172.72;2105335;84;28597;-63
2022/06/26 10:24:58;;;;;;;9.93;4.90;;;;;;;33.79;26.98;100171.55;2097885;84;31467;-63
2022/06/26 10:28:03;;;;;;;5.85;5.28;;;;;;;33.64;26.83;100162.77;2111471;83;33075;-63
2022/06/26 10:31:10;;;;;;;5.65;4.72;;;;;;;33.53;27.14;100164.39;2120822;83;29695;-68
2022/06/26 10:34:24;;;;;;;6.12;4.60;;;;;;;33.40;27.20;100164.55;2121184;83;27529;-63
2022/06/26 10:37:25;;;;;;;5.25;4.75;;;;;;;33.32;26.87;100164.28;2120764;83;28683;-64
2022/06/26 10:43:54;;;;;;;8.25;4.58;;;;;;;33.21;27.51;100163.66;2107479;83;33764;-65
2022/06/26 10:46:58;;;;;;;6.60;4.20;;;;;;;33.12;27.23;100166.72;2109020;84;29677;-66
2022/06/26 10:49:59;;;;;;;5.23;4.53;;;;;;;32.96;26.97;100167.31;2109558;84;27680;-65
2022/06/26 10:53:23;;;;;;;4.62;4.10;;;;;;;32.88;27.23;100167.93;2109160;84;29405;-63
2022/06/26 10:56:24;;;;;;;5.25;4.72;;;;;;;32.84;27.24;100172.78;1981714;89;31043;-65
2022/06/26 10:59:26;;;;;;;5.72;4.35;;;;;;;32.84;28.09;100165.30;1981693;89;33719;-65
2022/06/26 11:02:37;;;;;;;4.83;4.37;;;;;;;32.81;27.47;100162.97;1981833;89;29632;-64
2022/06/26 11:05:38;;;;;;;4.72;4.30;;;;;;;32.81;27.63;100167.65;1981606;89;27790;-68
2022/06/26 11:08:49;;;;;;;4.12;3.83;;;;;;;32.68;26.83;100163.89;1981586;89;28637;-64
2022/06/26 11:11:52;;;;;;;5.25;4.20;;;;;;;32.67;27.11;100158.58;1981648;89;31035;-64
2022/06/26 11:14:53;;;;;;;8.65;4.37;;;;;;;32.71;27.62;100165.38;1981457;89;33036;-68
2022/06/26 11:18:04;;;;;;;5.28;4.00;;;;;;;32.68;27.79;100163.05;1982084;89;29720;-64
2022/06/26 11:21:05;;;;;;;7.75;4.35;;;;;;;32.64;27.23;100154.87;1982078;89;28207;-65
2022/06/26 11:24:06;;;;;;;5.17;4.67;;;;;;;32.54;27.42;100156.23;1981894;89;28715;-64
2022/06/26 11:27:08;;;;;;;6.53;4.95;;;;;;;32.46;27.82;100148.73;1982112;89;31882;-65
2022/06/26 11:30:10;;;;;;;7.05;5.70;;;;;;;32.52;28.55;100149.20;2042987;83;33767;-66
2022/06/26 11:33:11;;;;;;;5.40;4.72;;;;;;;32.48;28.94;100143.26;2128255;83;30417;-63
2022/06/26 11:36:16;;;;;;;7.55;4.97;;;;;;;32.45;28.63;100139.55;2128380;83;27696;-63
2022/06/26 11:39:18;;;;;;;6.70;5.03;;;;;;;32.46;29.17;100141.80;2128229;83;28681;-64
2022/06/26 11:42:24;;;;;;;9.10;4.78;;;;;;;32.45;28.91;100138.70;2126481;82;31132;-64
2022/06/26 11:45:25;;;;;;;5.42;4.78;;;;;;;32.34;29.08;100139.76;2120181;83;33856;-63
2022/06/26 11:48:26;;;;;;;6.72;4.70;;;;;;;32.29;29.35;100136.80;2121209;83;29630;-64
2022/06/26 11:51:31;;;;;;;5.65;5.03;;;;;;;32.29;29.83;100149.27;2121129;83;27637;-64
2022/06/26 11:54:33;;;;;;;6.10;5.12;;;;;;;32.26;29.89;100137.24;2121020;83;28696;-64
2022/06/26 11:57:34;;;;;;;5.53;4.70;;;;;;;32.15;30.19;100137.38;2121014;83;31007;-66
2022/06/26 12:00:35;;;;;;;5.80;5.25;;;;;;;32.04;30.32;100135.33;2120969;83;32986;-65
2022/06/26 12:03:50;;;;;;;8.05;5.85;;;;;;;32.04;30.51;100141.70;2120917;83;29635;-65
2022/06/26 12:06:52;;;;;;;5.40;4.87;;;;;;;32.06;30.56;100130.42;2121021;83;27702;-64
2022/06/26 12:09:57;;;;;;;5.85;5.35;;;;;;;32.12;30.50;100125.35;2121016;83;28634;-66
2022/06/26 12:13:00;;;;;;;6.45;5.75;;;;;;;32.15;30.68;100141.54;2120734;83;32488;-61
2022/06/26 12:16:05;;;;;;;6.87;5.85;;;;;;;32.17;30.62;100137.18;2115675;83;33013;-64
2022/06/26 12:19:07;;;;;;;7.12;5.92;;;;;;;32.19;30.74;100140.55;2101852;84;29623;-65
2022/06/26 12:22:08;;;;;;;8.70;6.00;;;;;;;32.15;30.88;100137.38;2101950;83;27672;-63
2022/06/26 12:25:09;;;;;;;10.48;8.05;;;;;;;32.21;31.12;100134.25;2101868;84;29241;-64
2022/06/26 12:28:22;;;;;;;5.45;4.95;;;;;;;32.25;30.93;100125.80;2101803;84;31039;-64
2022/06/26 12:31:23;;;;;;;20.32;14.90;;;;;;;32.31;30.88;100140.20;2101909;84;34118;-63
2022/06/26 12:34:25;;;;;;;14.13;8.03;;;;;;;32.39;30.26;100139.91;2101692;84;30095;-64
2022/06/26 12:37:27;;;;;;;9.23;7.03;;;;;;;32.46;30.55;100134.86;2102061;84;27700;-63
2022/06/26 12:40:29;;;;;;;9.28;5.70;;;;;;;32.50;30.14;100128.63;2101913;84;29882;-66
2022/06/26 12:43:31;;;;;;;4.72;4.10;;;;;;;32.55;30.38;100120.49;2074262;84;31032;-65
2022/06/26 12:46:33;;;;;;;7.87;4.83;;;;;;;32.65;30.44;100119.13;2104520;84;33164;-64
2022/06/26 12:49:34;;;;;;;6.50;5.03;;;;;;;32.75;29.68;100120.86;2104840;84;29888;-64
2022/06/26 12:52:36;;;;;;;5.28;4.87;;;;;;;32.72;29.61;100118.53;2104988;84;27661;-63
2022/06/26 12:55:37;;;;;;;6.30;5.15;;;;;;;32.71;29.56;100123.77;2105023;84;28193;-62
2022/06/26 12:58:40;;;;;;;7.70;5.00;;;;;;;32.63;29.70;100125.43;2105175;84;31000;-63
2022/06/26 13:01:41;;;;;;;6.20;5.10;;;;;;;32.57;29.48;100122.51;2104704;84;32973;-64
2022/06/26 13:04:42;;;;;;;8.18;5.20;;;;;;;32.57;29.63;100117.48;2105073;84;30380;-65
2022/06/26 13:07:44;;;;;;;4.95;4.45;;;;;;;32.57;29.81;100113.32;2105100;84;27734;-62
2022/06/26 13:10:46;;;;;;;6.05;4.92;;;;;;;32.63;29.48;100111.04;2105226;84;29318;-64
2022/06/26 13:13:47;;;;;;;9.98;5.45;;;;;;;32.72;29.55;100111.60;2105013;83;31103;-65
2022/06/26 13:16:48;;;;;;;5.80;4.80;;;;;;;32.75;29.52;100111.15;2120941;83;32942;-70
2022/06/26 13:19:49;;;;;;;5.72;4.95;;;;;;;32.74;29.71;100113.61;2134270;83;29650;-66
2022/06/26 13:22:51;;;;;;;5.95;5.20;;;;;;;32.80;29.82;100106.30;2134872;83;27690;-61
2022/06/26 13:25:52;;;;;;;5.42;4.70;;;;;;;32.89;29.78;100109.11;2134420;83;28644;-62
2022/06/26 13:28:53;;;;;;;5.15;4.67;;;;;;;32.95;29.51;100106.81;2134167;83;30824;-62
2022/06/26 13:31:54;;;;;;;4.65;4.25;;;;;;;32.98;29.50;100107.75;2134249;83;33047;-64
2022/06/26 13:34:56;;;;;;;5.72;4.95;;;;;;;33.03;29.81;100116.77;2134553;83;29961;-63
2022/06/26 13:37:57;;;;;;;6.35;4.62;;;;;;;33.06;29.66;100119.61;2134340;83;27698;-64
2022/06/26 13:41:00;;;;;;;5.30;4.80;;;;;;;33.01;29.56;100116.97;2134318;83;28867;-64
2022/06/26 13:44:02;;;;;;;7.60;5.20;;;;;;;33.00;29.58;100114.44;2126708;83;31033;-63
2022/06/26 13:47:04;;;;;;;5.47;4.87;;;;;;;32.98;29.50;100124.40;2120838;83;32590;-63
2022/06/26 13:50:06;;;;;;;5.10;4.60;;;;;;;32.96;29.64;100125.16;2121267;83;29628;-71
2022/06/26 13:53:10;;;;;;;8.13;4.75;;;;;;;32.97;29.38;100132.41;2121049;83;27597;-62
2022/06/26 13:56:11;;;;;;;6.62;4.37;;;;;;;32.90;29.53;100126.62;2121509;83;29258;-60
2022/06/26 13:59:13;;;;;;;6.83;4.70;;;;;;;32.87;29.43;100122.36;2121319;83;31403;-61
2022/06/26 14:02:14;;;;;;;5.17;4.42;;;;;;;32.82;29.30;100127.20;2121418;83;34052;-61
2022/06/26 14:05:15;;;;;;;4.75;4.35;;;;;;;32.82;29.49;100122.21;2121195;83;29978;-66
2022/06/26 14:08:17;;;;;;;5.55;5.00;;;;;;;32.80;29.39;100118.78;2121275;83;27706;-62
2022/06/26 14:11:18;;;;;;;5.25;4.33;;;;;;;32.83;29.24;100123.91;2121115;83;28624;-62
2022/06/26 14:14:20;;;;;;;5.28;4.00;;;;;;;32.77;29.43;100127.55;2120843;83;32315;-65
2022/06/26 14:17:21;;;;;;;7.60;4.58;;;;;;;32.79;29.55;100126.23;2107110;83;32994;-66